createdAt,value
2024-05-09T00:00:59.864Z,96580.00
2024-05-09T00:01:59.865Z,96580.00
2024-05-09T00:02:59.850Z,96578.00
2024-05-09T00:03:59.869Z,96579.00
2024-05-09T00:04:59.948Z,96577.00
2024-05-09T00:05:59.971Z,96575.00
2024-05-09T00:06:59.844Z,96576.00
2024-05-09T00:07:59.875Z,96574.00
2024-05-09T00:08:59.855Z,96576.00
2024-05-09T00:09:59.862Z,96574.00
2024-05-09T00:10:59.916Z,96575.00
2024-05-09T00:12:00.063Z,96573.00
2024-05-09T00:12:59.851Z,96573.00
2024-05-09T00:13:59.887Z,96572.00
2024-05-09T00:14:59.878Z,96573.00
2024-05-09T00:15:59.868Z,96572.00
2024-05-09T00:16:59.891Z,96573.00
2024-05-09T00:18:05.729Z,96571.00
2024-05-09T00:19:00.022Z,96571.00
2024-05-09T00:19:59.886Z,96572.00
2024-05-09T00:21:00.000Z,96568.00
2024-05-09T00:21:59.877Z,96567.00
2024-05-09T00:22:59.893Z,96566.00
2024-05-09T00:23:59.861Z,96564.00
2024-05-09T00:24:59.876Z,96565.00
2024-05-09T00:25:59.956Z,96561.00
2024-05-09T00:26:59.878Z,96561.00
2024-05-09T00:27:59.890Z,96562.00
2024-05-09T00:28:59.923Z,96559.00
2024-05-09T00:29:59.894Z,96558.00
2024-05-09T00:30:59.904Z,96557.00
2024-05-09T00:32:00.017Z,96555.00
2024-05-09T00:32:59.989Z,96555.00
2024-05-09T00:34:00.047Z,96554.00
2024-05-09T00:34:59.924Z,96554.00
2024-05-09T00:35:59.892Z,96552.00
2024-05-09T00:36:59.909Z,96553.00
2024-05-09T00:38:00.107Z,96551.00
2024-05-09T00:38:59.894Z,96552.00
2024-05-09T00:39:59.895Z,96553.00
2024-05-09T00:40:59.965Z,96553.00
2024-05-09T00:42:04.956Z,96552.00
2024-05-09T00:42:59.936Z,96552.00
2024-05-09T00:44:00.029Z,96553.00
2024-05-09T00:44:59.985Z,96549.00
2024-05-09T00:45:59.994Z,96550.00
2024-05-09T00:47:00.029Z,96549.00
2024-05-09T00:48:00.262Z,96549.00
2024-05-09T00:49:00.025Z,96548.00
2024-05-09T00:50:00.023Z,96550.00
2024-05-09T00:51:00.022Z,96549.00
2024-05-09T00:52:00.023Z,96547.00
2024-05-09T00:53:00.080Z,96548.00
2024-05-09T00:54:00.124Z,96546.00
2024-05-09T00:55:00.188Z,96545.00
2024-05-09T00:56:01.033Z,96544.00
2024-05-09T00:57:00.345Z,96545.00
2024-05-09T00:58:00.467Z,96543.00
2024-05-09T00:59:00.657Z,96540.00
2024-05-09T01:00:00.725Z,96542.00
2024-05-09T01:01:00.877Z,96541.00
2024-05-09T01:02:01.043Z,96541.00
2024-05-09T01:03:01.288Z,96542.00
2024-05-09T01:04:01.327Z,96540.00
2024-05-09T01:05:01.426Z,96540.00
2024-05-09T01:06:01.464Z,96540.00
2024-05-09T01:07:01.556Z,96543.00
2024-05-09T01:08:01.768Z,96539.00
2024-05-09T01:09:01.791Z,96540.00
2024-05-09T01:10:01.906Z,96542.00
2024-05-09T01:11:02.154Z,96541.00
2024-05-09T01:12:02.403Z,96541.00
2024-05-09T01:13:02.294Z,96540.00
2024-05-09T01:14:02.465Z,96539.00
2024-05-09T01:15:02.565Z,96536.00
2024-05-09T01:16:02.661Z,96536.00
2024-05-09T01:17:02.864Z,96536.00
2024-05-09T01:18:03.112Z,96536.00
2024-05-09T01:19:03.344Z,96536.00
2024-05-09T01:20:05.794Z,96536.00
2024-05-09T01:21:03.207Z,96536.00
2024-05-09T01:22:07.073Z,96537.00
2024-05-09T01:23:03.230Z,96537.00
2024-05-09T01:24:03.188Z,96536.00
2024-05-09T01:25:03.209Z,96538.00
2024-05-09T01:26:03.239Z,96535.00
2024-05-09T01:27:03.214Z,96535.00
2024-05-09T01:28:03.226Z,96537.00
2024-05-09T01:29:03.232Z,96536.00
2024-05-09T01:30:07.039Z,96536.00
2024-05-09T01:31:04.202Z,96536.00
2024-05-09T01:32:03.280Z,96536.00
2024-05-09T01:33:03.574Z,96538.00
2024-05-09T01:34:03.276Z,96537.00
2024-05-09T01:35:03.241Z,96537.00
2024-05-09T01:36:03.210Z,96538.00
2024-05-09T01:37:03.219Z,96537.00
2024-05-09T01:38:03.284Z,96535.00
2024-05-09T01:39:03.336Z,96537.00
2024-05-09T01:40:03.669Z,96533.00
2024-05-09T01:41:03.615Z,96536.00
2024-05-09T01:42:08.657Z,96535.00
2024-05-09T01:43:03.627Z,96537.00
2024-05-09T01:44:03.690Z,96534.00
2024-05-09T01:45:03.639Z,96534.00
2024-05-09T01:46:03.648Z,96536.00
2024-05-09T01:47:03.670Z,96534.00
2024-05-09T01:48:04.104Z,96532.00
2024-05-09T01:49:03.765Z,96533.00
2024-05-09T01:50:03.760Z,96532.00
2024-05-09T01:51:03.677Z,96534.00
2024-05-09T01:52:03.777Z,96533.00
2024-05-09T01:53:03.950Z,96533.00
2024-05-09T01:54:04.010Z,96531.00
2024-05-09T01:55:06.481Z,96531.00
2024-05-09T01:56:04.156Z,96531.00
2024-05-09T01:57:04.135Z,96532.00
2024-05-09T01:58:04.203Z,96530.00
2024-05-09T01:59:04.196Z,96532.00
2024-05-09T02:00:06.073Z,96531.00
2024-05-09T02:01:04.188Z,96531.00
2024-05-09T02:02:04.268Z,96530.00
2024-05-09T02:03:04.293Z,96531.00
2024-05-09T02:04:04.453Z,96530.00
2024-05-09T02:05:04.300Z,96529.00
2024-05-09T02:06:04.201Z,96530.00
2024-05-09T02:07:04.174Z,96531.00
2024-05-09T02:08:04.220Z,96528.00
2024-05-09T02:09:04.195Z,96530.00
2024-05-09T02:10:10.813Z,96529.00
2024-05-09T02:11:05.285Z,96527.00
2024-05-09T02:12:08.936Z,96525.00
2024-05-09T02:13:04.190Z,96524.00
2024-05-09T02:14:04.223Z,96525.00
2024-05-09T02:15:04.196Z,96523.00
2024-05-09T02:16:04.198Z,96524.00
2024-05-09T02:17:04.273Z,96526.00
2024-05-09T02:18:04.558Z,96525.00
2024-05-09T02:19:04.277Z,96526.00
2024-05-09T02:20:06.012Z,96527.00
2024-05-09T02:21:04.361Z,96528.00
2024-05-09T02:22:04.221Z,96527.00
2024-05-09T02:23:04.898Z,96527.00
2024-05-09T02:24:04.276Z,96527.00
2024-05-09T02:25:04.224Z,96528.00
2024-05-09T02:26:04.335Z,96526.00
2024-05-09T02:27:04.395Z,96526.00
2024-05-09T02:28:04.523Z,96527.00
2024-05-09T02:29:04.620Z,96527.00
2024-05-09T02:30:09.920Z,96527.00
2024-05-09T02:31:05.734Z,96526.00
2024-05-09T02:32:04.784Z,96526.00
2024-05-09T02:33:04.975Z,96525.00
2024-05-09T02:34:04.960Z,96523.00
2024-05-09T02:35:04.765Z,96523.00
2024-05-09T02:36:04.743Z,96523.00
2024-05-09T02:37:04.758Z,96522.00
2024-05-09T02:38:04.813Z,96521.00
2024-05-09T02:39:04.883Z,96520.00
2024-05-09T02:40:05.749Z,96519.00
2024-05-09T02:41:05.061Z,96519.00
2024-05-09T02:42:05.095Z,96518.00
2024-05-09T02:43:05.388Z,96520.00
2024-05-09T02:44:05.298Z,96521.00
2024-05-09T02:45:05.344Z,96521.00
2024-05-09T02:46:05.458Z,96521.00
2024-05-09T02:47:05.630Z,96521.00
2024-05-09T02:48:05.910Z,96521.00
2024-05-09T02:49:05.774Z,96524.00
2024-05-09T02:50:07.818Z,96523.00
2024-05-09T02:51:05.852Z,96526.00
2024-05-09T02:52:05.860Z,96525.00
2024-05-09T02:53:06.354Z,96524.00
2024-05-09T02:54:06.136Z,96526.00
2024-05-09T02:55:06.259Z,96524.00
2024-05-09T02:56:06.407Z,96525.00
2024-05-09T02:57:06.566Z,96522.00
2024-05-09T02:58:06.637Z,96521.00
2024-05-09T02:59:06.804Z,96522.00
2024-05-09T03:00:14.947Z,96522.00
2024-05-09T03:01:07.925Z,96521.00
2024-05-09T03:02:07.020Z,96520.00
2024-05-09T03:03:07.203Z,96521.00
2024-05-09T03:04:07.135Z,96520.00
2024-05-09T03:05:06.955Z,96523.00
2024-05-09T03:06:06.892Z,96522.00
2024-05-09T03:07:06.933Z,96520.00
2024-05-09T03:08:07.016Z,96525.00
2024-05-09T03:09:07.016Z,96523.00
2024-05-09T03:10:14.567Z,96525.00
2024-05-09T03:11:08.209Z,96527.00
2024-05-09T03:12:07.208Z,96524.00
2024-05-09T03:13:07.151Z,96524.00
2024-05-09T03:14:07.231Z,96527.00
2024-05-09T03:15:07.197Z,96526.00
2024-05-09T03:16:07.199Z,96526.00
2024-05-09T03:17:17.394Z,96526.00
2024-05-09T03:18:07.611Z,96525.00
2024-05-09T03:19:07.275Z,96524.00
2024-05-09T03:20:14.542Z,96523.00
2024-05-09T03:21:08.358Z,96523.00
2024-05-09T03:22:07.201Z,96521.00
2024-05-09T03:23:07.462Z,96521.00
2024-05-09T03:24:07.223Z,96523.00
2024-05-09T03:25:07.234Z,96523.00
2024-05-09T03:26:07.258Z,96522.00
2024-05-09T03:27:07.272Z,96521.00
2024-05-09T03:28:07.285Z,96521.00
2024-05-09T03:29:07.402Z,96521.00
2024-05-09T03:30:09.643Z,96522.00
2024-05-09T03:31:07.539Z,96520.00
2024-05-09T03:32:07.758Z,96522.00
2024-05-09T03:33:08.125Z,96523.00
2024-05-09T03:34:07.919Z,96521.00
2024-05-09T03:35:07.874Z,96520.00
2024-05-09T03:36:10.535Z,96521.00
2024-05-09T03:37:07.885Z,96520.00
2024-05-09T03:38:07.934Z,96519.00
2024-05-09T03:39:07.896Z,96521.00
2024-05-09T03:40:11.822Z,96520.00
2024-05-09T03:41:08.964Z,96521.00
2024-05-09T03:42:07.893Z,96521.00
2024-05-09T03:43:07.896Z,96522.00
2024-05-09T03:44:07.930Z,96521.00
2024-05-09T03:45:07.915Z,96521.00
2024-05-09T03:46:07.903Z,96521.00
2024-05-09T03:47:08.030Z,96520.00
2024-05-09T03:48:08.226Z,96521.00
2024-05-09T03:49:08.076Z,96522.00
2024-05-09T03:50:15.134Z,96519.00
2024-05-09T03:51:09.214Z,96521.00
2024-05-09T03:52:08.038Z,96522.00
2024-05-09T03:53:08.116Z,96522.00
2024-05-09T03:54:08.049Z,96522.00
2024-05-09T03:55:08.047Z,96525.00
2024-05-09T03:56:08.104Z,96525.00
2024-05-09T03:57:08.063Z,96527.00
2024-05-09T03:58:08.268Z,96528.00
2024-05-09T03:59:08.160Z,96530.00
2024-05-09T04:00:14.849Z,96528.00
2024-05-09T04:01:09.296Z,96529.00
2024-05-09T04:02:08.356Z,96531.00
2024-05-09T04:03:10.967Z,96530.00
2024-05-09T04:04:08.299Z,96534.00
2024-05-09T04:05:08.304Z,96535.00
2024-05-09T04:06:08.254Z,96535.00
2024-05-09T04:07:08.289Z,96534.00
2024-05-09T04:08:08.296Z,96536.00
2024-05-09T04:09:08.276Z,96538.00
2024-05-09T04:10:11.262Z,96538.00
2024-05-09T04:11:09.336Z,96539.00
2024-05-09T04:12:08.409Z,96539.00
2024-05-09T04:13:08.278Z,96540.00
2024-05-09T04:14:08.327Z,96538.00
2024-05-09T04:15:12.071Z,96539.00
2024-05-09T04:16:08.309Z,96538.00
2024-05-09T04:17:08.323Z,96540.00
2024-05-09T04:18:08.654Z,96538.00
2024-05-09T04:19:08.411Z,96538.00
2024-05-09T04:20:10.583Z,96537.00
2024-05-09T04:21:08.465Z,96539.00
2024-05-09T04:22:08.422Z,96537.00
2024-05-09T04:23:09.264Z,96538.00
2024-05-09T04:24:08.335Z,96538.00
2024-05-09T04:25:08.340Z,96539.00
2024-05-09T04:26:08.433Z,96540.00
2024-05-09T04:27:08.352Z,96540.00
2024-05-09T04:28:08.343Z,96540.00
2024-05-09T04:29:09.094Z,96538.00
2024-05-09T04:30:15.270Z,96543.00
2024-05-09T04:31:09.347Z,96542.00
2024-05-09T04:32:16.718Z,96541.00
2024-05-09T04:33:16.787Z,96544.00
2024-05-09T04:34:16.710Z,96545.00
2024-05-09T04:35:16.760Z,96547.00
2024-05-09T04:36:16.840Z,96547.00
2024-05-09T04:37:16.970Z,96548.00
2024-05-09T04:38:17.214Z,96548.00
2024-05-09T04:39:17.205Z,96548.00
2024-05-09T04:40:27.546Z,96549.00
2024-05-09T04:41:18.334Z,96550.00
2024-05-09T04:42:17.336Z,96549.00
2024-05-09T04:43:17.516Z,96549.00
2024-05-09T04:44:17.341Z,96550.00
2024-05-09T04:45:17.374Z,96550.00
2024-05-09T04:46:17.366Z,96550.00
2024-05-09T04:47:17.534Z,96548.00
2024-05-09T04:48:17.510Z,96550.00
2024-05-09T04:49:17.535Z,96549.00
2024-05-09T04:50:25.341Z,96551.00
2024-05-09T04:51:18.359Z,96551.00
2024-05-09T04:52:17.373Z,96551.00
2024-05-09T04:53:17.692Z,96553.00
2024-05-09T04:54:26.497Z,96553.00
2024-05-09T04:55:18.359Z,96554.00
2024-05-09T04:56:17.413Z,96555.00
2024-05-09T04:57:17.385Z,96557.00
2024-05-09T04:58:17.376Z,96560.00
2024-05-09T04:59:17.441Z,96558.00
2024-05-09T05:00:25.462Z,96561.00
2024-05-09T05:01:18.455Z,96564.00
2024-05-09T05:02:22.519Z,96561.00
2024-05-09T05:03:17.808Z,96563.00
2024-05-09T05:04:17.623Z,96564.00
2024-05-09T05:05:17.576Z,96562.00
2024-05-09T05:06:17.505Z,96563.00
2024-05-09T05:07:17.622Z,96561.00
2024-05-09T05:08:18.802Z,96559.00
2024-05-09T05:09:17.818Z,96559.00
2024-05-09T05:10:25.268Z,96560.00
2024-05-09T05:11:19.024Z,96558.00
2024-05-09T05:12:17.940Z,96559.00
2024-05-09T05:13:18.935Z,96558.00
2024-05-09T05:14:17.920Z,96556.00
2024-05-09T05:15:17.872Z,96554.00
2024-05-09T05:16:17.875Z,96554.00
2024-05-09T05:17:17.936Z,96552.00
2024-05-09T05:18:18.486Z,96554.00
2024-05-09T05:19:18.023Z,96553.00
2024-05-09T05:20:27.060Z,96554.00
2024-05-09T05:21:19.141Z,96553.00
2024-05-09T05:22:17.866Z,96554.00
2024-05-09T05:23:17.975Z,96556.00
2024-05-09T05:24:17.890Z,96555.00
2024-05-09T05:25:17.895Z,96558.00
2024-05-09T05:26:17.931Z,96559.00
2024-05-09T05:27:17.928Z,96559.00
2024-05-09T05:28:17.880Z,96557.00
2024-05-09T05:29:20.821Z,96559.00
2024-05-09T05:30:24.773Z,96558.00
2024-05-09T05:31:18.955Z,96561.00
2024-05-09T05:32:18.152Z,96559.00
2024-05-09T05:33:18.396Z,96561.00
2024-05-09T05:34:17.907Z,96561.00
2024-05-09T05:35:18.032Z,96562.00
2024-05-09T05:36:17.990Z,96560.00
2024-05-09T05:37:17.916Z,96560.00
2024-05-09T05:38:18.148Z,96561.00
2024-05-09T05:39:17.933Z,96561.00
2024-05-09T05:40:27.960Z,96560.00
2024-05-09T05:41:19.066Z,96560.00
2024-05-09T05:42:17.917Z,96561.00
2024-05-09T05:43:18.115Z,96560.00
2024-05-09T05:44:17.958Z,96562.00
2024-05-09T05:45:17.920Z,96560.00
2024-05-09T05:46:17.917Z,96561.00
2024-05-09T05:47:17.999Z,96561.00
2024-05-09T05:48:18.392Z,96563.00
2024-05-09T05:49:18.090Z,96563.00
2024-05-09T05:50:27.271Z,96562.00
2024-05-09T05:51:19.165Z,96564.00
2024-05-09T05:52:18.027Z,96562.00
2024-05-09T05:53:18.122Z,96561.00
2024-05-09T05:54:18.041Z,96563.00
2024-05-09T05:55:18.024Z,96563.00
2024-05-09T05:56:18.091Z,96562.00
2024-05-09T05:57:18.028Z,96562.00
2024-05-09T05:58:18.033Z,96561.00
2024-05-09T05:59:18.313Z,96562.00
2024-05-09T06:00:29.124Z,96560.00
2024-05-09T06:01:19.301Z,96564.00
2024-05-09T06:02:18.370Z,96563.00
2024-05-09T06:03:18.282Z,96564.00
2024-05-09T06:04:18.335Z,96568.00
2024-05-09T06:05:18.381Z,96567.00
2024-05-09T06:06:18.251Z,96568.00
2024-05-09T06:07:18.279Z,96565.00
2024-05-09T06:08:18.303Z,96566.00
2024-05-09T06:09:18.292Z,96566.00
2024-05-09T06:10:25.178Z,96564.00
2024-05-09T06:11:19.398Z,96563.00
2024-05-09T06:12:18.332Z,96565.00
2024-05-09T06:13:18.284Z,96564.00
2024-05-09T06:14:18.372Z,96561.00
2024-05-09T06:15:18.286Z,96561.00
2024-05-09T06:16:18.289Z,96563.00
2024-05-09T06:17:18.440Z,96562.00
2024-05-09T06:18:18.674Z,96565.00
2024-05-09T06:19:18.362Z,96567.00
2024-05-09T06:20:23.994Z,96568.00
2024-05-09T06:21:19.492Z,96567.00
2024-05-09T06:22:18.292Z,96568.00
2024-05-09T06:23:18.431Z,96569.00
2024-05-09T06:24:18.292Z,96568.00
2024-05-09T06:25:18.294Z,96567.00
2024-05-09T06:26:18.366Z,96569.00
2024-05-09T06:27:18.305Z,96567.00
2024-05-09T06:28:18.302Z,96568.00
2024-05-09T06:29:18.339Z,96566.00
2024-05-09T06:31:18.288Z,96569.00
2024-05-09T06:32:18.370Z,96569.00
2024-05-09T06:33:18.599Z,96570.00
2024-05-09T06:34:18.486Z,96570.00
2024-05-09T06:35:18.426Z,96568.00
2024-05-09T06:36:18.315Z,96568.00
2024-05-09T06:37:18.321Z,96568.00
2024-05-09T06:38:18.368Z,96568.00
2024-05-09T06:39:18.358Z,96568.00
2024-05-09T06:40:25.444Z,96570.00
2024-05-09T06:41:19.386Z,96570.00
2024-05-09T06:42:18.335Z,96573.00
2024-05-09T06:43:19.617Z,96573.00
2024-05-09T06:44:18.392Z,96576.00
2024-05-09T06:45:18.346Z,96576.00
2024-05-09T06:46:18.346Z,96575.00
2024-05-09T06:47:18.441Z,96576.00
2024-05-09T06:48:18.792Z,96577.00
2024-05-09T06:49:18.573Z,96575.00
2024-05-09T06:50:23.918Z,96576.00
2024-05-09T06:51:19.384Z,96577.00
2024-05-09T06:52:18.347Z,96577.00
2024-05-09T06:53:18.372Z,96577.00
2024-05-09T06:54:18.356Z,96580.00
2024-05-09T06:55:18.449Z,96577.00
2024-05-09T06:56:18.423Z,96578.00
2024-05-09T06:57:18.367Z,96581.00
2024-05-09T06:58:18.358Z,96577.00
2024-05-09T06:59:18.471Z,96578.00
2024-05-09T07:00:26.895Z,96577.00
2024-05-09T07:01:19.421Z,96576.00
2024-05-09T07:02:18.453Z,96578.00
2024-05-09T07:03:19.480Z,96576.00
2024-05-09T07:04:18.462Z,96575.00
2024-05-09T07:05:18.484Z,96576.00
2024-05-09T07:06:18.485Z,96576.00
2024-05-09T07:07:18.395Z,96578.00
2024-05-09T07:08:18.550Z,96578.00
2024-05-09T07:09:18.390Z,96577.00
2024-05-09T07:10:25.721Z,96578.00
2024-05-09T07:11:19.462Z,96578.00
2024-05-09T07:12:18.550Z,96578.00
2024-05-09T07:13:18.387Z,96578.00
2024-05-09T07:14:18.525Z,96578.00
2024-05-09T07:15:18.402Z,96576.00
2024-05-09T07:16:18.405Z,96578.00
2024-05-09T07:17:18.459Z,96579.00
2024-05-09T07:18:19.316Z,96576.00
2024-05-09T07:19:18.678Z,96578.00
2024-05-09T07:20:23.761Z,96578.00
2024-05-09T07:21:19.676Z,96576.00
2024-05-09T07:22:18.534Z,96579.00
2024-05-09T07:23:18.760Z,96576.00
2024-05-09T07:24:18.540Z,96578.00
2024-05-09T07:25:18.550Z,96577.00
2024-05-09T07:26:18.765Z,96575.00
2024-05-09T07:27:18.560Z,96577.00
2024-05-09T07:28:18.702Z,96575.00
2024-05-09T07:29:18.696Z,96575.00
2024-05-09T07:30:23.821Z,96574.00
2024-05-09T07:31:19.578Z,96573.00
2024-05-09T07:32:19.047Z,96575.00
2024-05-09T07:33:19.553Z,96572.00
2024-05-09T07:34:19.093Z,96573.00
2024-05-09T07:35:18.567Z,96572.00
2024-05-09T07:36:18.566Z,96570.00
2024-05-09T07:37:18.572Z,96573.00
2024-05-09T07:38:18.729Z,96574.00
2024-05-09T07:39:18.668Z,96572.00
2024-05-09T07:40:28.461Z,96572.00
2024-05-09T07:41:19.608Z,96574.00
2024-05-09T07:42:18.589Z,96571.00
2024-05-09T07:43:18.590Z,96570.00
2024-05-09T07:44:18.640Z,96572.00
2024-05-09T07:47:14.456Z,96569.00
2024-05-09T07:48:29.207Z,96570.00
2024-05-09T07:53:38.234Z,96563.00
2024-05-09T07:54:19.849Z,96564.00
2024-05-09T07:55:18.944Z,96561.00
2024-05-09T07:56:20.379Z,96561.00
2024-05-09T07:57:18.725Z,96563.00
2024-05-09T07:58:18.703Z,96560.00
2024-05-09T07:59:18.646Z,96559.00
2024-05-09T08:00:23.823Z,96559.00
2024-05-09T08:01:20.037Z,96560.00
2024-05-09T08:02:18.723Z,96556.00
2024-05-09T08:03:18.826Z,96558.00
2024-05-09T08:04:18.733Z,96558.00
2024-05-09T08:05:18.807Z,96557.00
2024-05-09T08:06:18.669Z,96557.00
2024-05-09T08:07:18.711Z,96558.00
2024-05-09T08:08:18.691Z,96559.00
2024-05-09T08:09:21.243Z,96560.00
2024-05-09T08:10:22.253Z,96558.00
2024-05-09T08:11:19.769Z,96560.00
2024-05-09T08:12:18.663Z,96556.00
2024-05-09T08:13:18.817Z,96556.00
2024-05-09T08:14:18.677Z,96554.00
2024-05-09T08:15:18.680Z,96555.00
2024-05-09T08:16:18.927Z,96552.00
2024-05-09T08:17:18.730Z,96553.00
2024-05-09T08:18:18.789Z,96553.00
2024-05-09T08:19:18.805Z,96552.00
2024-05-09T08:20:27.078Z,96552.00
2024-05-09T08:21:19.751Z,96554.00
2024-05-09T08:22:18.690Z,96551.00
2024-05-09T08:23:18.674Z,96551.00
2024-05-09T08:24:18.713Z,96550.00
2024-05-09T08:25:18.757Z,96552.00
2024-05-09T08:26:18.699Z,96551.00
2024-05-09T08:27:18.698Z,96552.00
2024-05-09T08:28:18.900Z,96551.00
2024-05-09T08:29:18.851Z,96551.00
2024-05-09T08:30:25.197Z,96552.00
2024-05-09T08:31:20.051Z,96552.00
2024-05-09T08:32:18.990Z,96549.00
2024-05-09T08:33:19.009Z,96550.00
2024-05-09T08:34:19.060Z,96550.00
2024-05-09T08:35:18.955Z,96549.00
2024-05-09T08:36:18.966Z,96547.00
2024-05-09T08:37:22.533Z,96546.00
2024-05-09T08:38:20.033Z,96546.00
2024-05-09T08:39:18.953Z,96547.00
2024-05-09T08:40:27.295Z,96547.00
2024-05-09T08:41:19.985Z,96545.00
2024-05-09T08:42:18.966Z,96546.00
2024-05-09T08:43:19.276Z,96543.00
2024-05-09T08:44:19.004Z,96545.00
2024-05-09T08:45:18.982Z,96544.00
2024-05-09T08:46:19.262Z,96542.00
2024-05-09T08:47:19.001Z,96541.00
2024-05-09T08:48:19.311Z,96539.00
2024-05-09T08:49:19.044Z,96540.00
2024-05-09T08:50:28.941Z,96536.00
2024-05-09T08:51:19.984Z,96538.00
2024-05-09T08:52:19.073Z,96536.00
2024-05-09T08:53:19.009Z,96535.00
2024-05-09T08:54:18.998Z,96534.00
2024-05-09T08:55:19.047Z,96536.00
2024-05-09T08:56:18.982Z,96536.00
2024-05-09T08:57:18.993Z,96538.00
2024-05-09T08:58:19.235Z,96539.00
2024-05-09T08:59:18.994Z,96536.00
2024-05-09T09:00:29.260Z,96536.00
2024-05-09T09:01:20.117Z,96539.00
2024-05-09T09:02:19.457Z,96537.00
2024-05-09T09:03:27.017Z,96537.00
2024-05-09T09:04:26.884Z,96537.00
2024-05-09T09:05:26.916Z,96535.00
2024-05-09T09:06:26.982Z,96535.00
2024-05-09T09:07:27.075Z,96534.00
2024-05-09T09:08:27.087Z,96532.00
2024-05-09T09:09:27.282Z,96532.00
2024-05-09T09:10:32.024Z,96532.00
2024-05-09T09:11:28.344Z,96532.00
2024-05-09T09:12:27.385Z,96532.00
2024-05-09T09:13:27.332Z,96533.00
2024-05-09T09:14:27.306Z,96532.00
2024-05-09T09:15:27.373Z,96531.00
2024-05-09T09:16:27.371Z,96528.00
2024-05-09T09:17:27.416Z,96526.00
2024-05-09T09:18:27.835Z,96526.00
2024-05-09T09:19:27.429Z,96523.00
2024-05-09T09:20:34.223Z,96523.00
2024-05-09T09:21:28.338Z,96521.00
2024-05-09T09:22:27.325Z,96522.00
2024-05-09T09:23:27.335Z,96523.00
2024-05-09T09:24:27.378Z,96519.00
2024-05-09T09:25:27.319Z,96521.00
2024-05-09T09:26:27.328Z,96521.00
2024-05-09T09:27:27.369Z,96522.00
2024-05-09T09:28:27.369Z,96522.00
2024-05-09T09:29:27.410Z,96520.00
2024-05-09T09:30:35.243Z,96521.00
2024-05-09T09:31:28.708Z,96522.00
2024-05-09T09:32:27.621Z,96523.00
2024-05-09T09:33:27.582Z,96522.00
2024-05-09T09:34:27.737Z,96519.00
2024-05-09T09:35:27.540Z,96519.00
2024-05-09T09:36:27.583Z,96517.00
2024-05-09T09:37:27.559Z,96515.00
2024-05-09T09:38:27.555Z,96515.00
2024-05-09T09:39:27.731Z,96514.00
2024-05-09T09:40:32.020Z,96510.00
2024-05-09T09:41:28.785Z,96511.00
2024-05-09T09:42:27.880Z,96509.00
2024-05-09T09:43:27.842Z,96507.00
2024-05-09T09:44:27.783Z,96508.00
2024-05-09T09:45:27.858Z,96508.00
2024-05-09T09:46:27.884Z,96507.00
2024-05-09T09:47:27.937Z,96507.00
2024-05-09T09:48:27.988Z,96507.00
2024-05-09T09:49:27.977Z,96507.00
2024-05-09T09:50:34.101Z,96507.00
2024-05-09T09:51:29.132Z,96507.00
2024-05-09T09:52:28.125Z,96507.00
2024-05-09T09:53:28.098Z,96507.00
2024-05-09T09:54:28.125Z,96507.00
2024-05-09T09:55:28.107Z,96506.00
2024-05-09T09:56:28.150Z,96506.00
2024-05-09T09:57:28.139Z,96505.00
2024-05-09T09:58:28.275Z,96501.00
2024-05-09T09:59:28.121Z,96505.00
2024-05-09T10:00:32.862Z,96505.00
2024-05-09T10:01:29.213Z,96503.00
2024-05-09T10:02:28.250Z,96503.00
2024-05-09T10:03:28.270Z,96501.00
2024-05-09T10:04:28.266Z,96502.00
2024-05-09T10:05:28.322Z,96497.00
2024-05-09T10:06:28.138Z,96498.00
2024-05-09T10:07:28.124Z,96501.00
2024-05-09T10:08:28.140Z,96497.00
2024-05-09T10:09:28.161Z,96497.00
2024-05-09T10:10:32.322Z,96497.00
2024-05-09T10:11:29.187Z,96496.00
2024-05-09T10:12:28.237Z,96498.00
2024-05-09T10:13:28.215Z,96500.00
2024-05-09T10:14:28.143Z,96497.00
2024-05-09T10:15:28.242Z,96500.00
2024-05-09T10:16:28.206Z,96498.00
2024-05-09T10:17:28.210Z,96496.00
2024-05-09T10:18:30.380Z,96496.00
2024-05-09T10:19:28.369Z,96495.00
2024-05-09T10:20:32.386Z,96494.00
2024-05-09T10:21:28.230Z,96493.00
2024-05-09T10:22:28.278Z,96493.00
2024-05-09T10:23:28.272Z,96492.00
2024-05-09T10:24:28.239Z,96491.00
2024-05-09T10:25:28.290Z,96488.00
2024-05-09T10:26:28.201Z,96489.00
2024-05-09T10:27:28.247Z,96489.00
2024-05-09T10:28:28.246Z,96488.00
2024-05-09T10:29:28.250Z,96490.00
2024-05-09T10:30:34.154Z,96488.00
2024-05-09T10:31:29.287Z,96486.00
2024-05-09T10:32:28.477Z,96484.00
2024-05-09T10:33:28.420Z,96483.00
2024-05-09T10:34:28.381Z,96482.00
2024-05-09T10:35:28.269Z,96481.00
2024-05-09T10:36:28.301Z,96484.00
2024-05-09T10:37:28.339Z,96482.00
2024-05-09T10:38:28.289Z,96480.00
2024-05-09T10:39:28.452Z,96482.00
2024-05-09T10:40:31.412Z,96479.00
2024-05-09T10:41:28.539Z,96483.00
2024-05-09T10:42:28.578Z,96477.00
2024-05-09T10:43:28.562Z,96479.00
2024-05-09T10:44:28.546Z,96476.00
2024-05-09T10:45:28.580Z,96475.00
2024-05-09T10:46:28.591Z,96474.00
2024-05-09T10:47:28.675Z,96474.00
2024-05-09T10:48:28.658Z,96474.00
2024-05-09T10:49:28.572Z,96471.00
2024-05-09T10:50:31.986Z,96471.00
2024-05-09T10:51:29.611Z,96470.00
2024-05-09T10:52:28.609Z,96471.00
2024-05-09T10:53:28.542Z,96469.00
2024-05-09T10:54:28.600Z,96469.00
2024-05-09T10:55:28.582Z,96468.00
2024-05-09T10:56:28.562Z,96468.00
2024-05-09T10:57:28.629Z,96467.00
2024-05-09T10:58:42.701Z,96465.00
2024-05-09T10:59:28.600Z,96466.00
2024-05-09T11:00:33.846Z,96466.00
2024-05-09T11:01:29.654Z,96465.00
2024-05-09T11:02:28.734Z,96465.00
2024-05-09T11:03:28.736Z,96463.00
2024-05-09T11:04:28.647Z,96463.00
2024-05-09T11:05:28.737Z,96464.00
2024-05-09T11:06:28.591Z,96466.00
2024-05-09T11:07:28.631Z,96463.00
2024-05-09T11:08:28.710Z,96464.00
2024-05-09T11:09:28.913Z,96466.00
2024-05-09T11:10:33.765Z,96465.00
2024-05-09T11:11:29.997Z,96464.00
2024-05-09T11:12:29.009Z,96463.00
2024-05-09T11:13:29.000Z,96463.00
2024-05-09T11:14:28.973Z,96464.00
2024-05-09T11:15:29.011Z,96462.00
2024-05-09T11:16:29.024Z,96463.00
2024-05-09T11:17:29.094Z,96461.00
2024-05-09T11:18:31.880Z,96461.00
2024-05-09T11:19:30.066Z,96462.00
2024-05-09T11:20:30.012Z,96458.00
2024-05-09T11:21:29.020Z,96458.00
2024-05-09T11:22:28.976Z,96460.00
2024-05-09T11:23:28.993Z,96458.00
2024-05-09T11:24:29.056Z,96457.00
2024-05-09T11:25:28.996Z,96458.00
2024-05-09T11:26:29.004Z,96456.00
2024-05-09T11:27:29.025Z,96457.00
2024-05-09T11:28:29.224Z,96454.00
2024-05-09T11:29:29.024Z,96455.00
2024-05-09T11:30:31.901Z,96456.00
2024-05-09T11:31:29.113Z,96454.00
2024-05-09T11:32:29.392Z,96454.00
2024-05-09T11:33:29.134Z,96453.00
2024-05-09T11:34:29.061Z,96455.00
2024-05-09T11:35:28.992Z,96453.00
2024-05-09T11:36:29.067Z,96451.00
2024-05-09T11:37:29.009Z,96450.00
2024-05-09T11:38:29.012Z,96449.00
2024-05-09T11:39:29.030Z,96449.00
2024-05-09T11:40:34.175Z,96449.00
2024-05-09T11:41:30.004Z,96446.00
2024-05-09T11:42:29.030Z,96447.00
2024-05-09T11:43:29.047Z,96448.00
2024-05-09T11:44:29.048Z,96448.00
2024-05-09T11:45:29.028Z,96447.00
2024-05-09T11:46:29.057Z,96447.00
2024-05-09T11:47:29.079Z,96447.00
2024-05-09T11:48:29.157Z,96447.00
2024-05-09T11:49:29.246Z,96442.00
2024-05-09T11:50:33.182Z,96441.00
2024-05-09T11:51:30.289Z,96444.00
2024-05-09T11:52:29.237Z,96444.00